Hub


Voltar

 INFORMAÇÕES METEOROLÓGICAS

METAR FOR GLRB


ADDS - METARS form results

(0748 UTC 25 August 2019)
Data provider http://aviationweather.gov/metar/data/
 
METAR text: GLRB 250730Z 00000KT 6000 TS BKN011 23/22 Q1015 TEMPO TS RMK CB-SW BRVC
Conditions at: GLRB (ROBERTS INTL/MON, LR) observed 0730 UTC 25 August 2019
Temperature: 23.0°C (73°F)
Dewpoint: 22.0°C (72°F) [RH = 94%]
Pressure (altimeter): 29.97 inches Hg (1015.0 mb)
Winds: calm
Visibility: 4 miles ( 6 km)
Ceiling: 1100 feet AGL
Clouds: broken clouds at 1100 feet AGL
Weather: TS  (thunderstorm)

METAR text: GLRB 250700Z 00000KT 6000 BR FEW006 BKN011 23/22 Q1015
Conditions at: GLRB (ROBERTS INTL/MON, LR) observed 0700 UTC 25 August 2019
Temperature: 23.0°C (73°F)
Dewpoint: 22.0°C (72°F) [RH = 94%]
Pressure (altimeter): 29.97 inches Hg (1015.0 mb)
Winds: calm
Visibility: 4 miles ( 6 km)
Ceiling: 1100 feet AGL
Clouds: few clouds at 600 feet AGL
broken clouds at 1100 feet AGL
Weather: BR  (mist)

Forecast for: GLRB (ROBERTS INTL/MON, LR)
Text: TAF GLRB 250400Z 2506/2612 VRB03KT 9000 BKN012 FEW022CB
Forecast period: 0600 UTC 25 August 2019 to 1200 UTC 26 August 2019
Forecast type: FROM: standard forecast or significant change
Winds: variable direction winds at 3 MPH (3 knots; 1.5 m/s)
Visibility: 6 miles (9 km)
Ceiling: 1200 feet AGL
Clouds: broken clouds at 1200 feet AGL
few clouds at 2200 feet AGL
Weather: no significant weather forecast for this period
Text: TEMPO 2506/2510 02005KT 7000 -RA/TSRA BKN009 FEW020CB
Forecast period: 0600 to 1000 UTC 25 August 2019
Forecast type: TEMPORARY: The following changes expected for less than half the time period
Winds: from the NNE (20 degrees) at 6 MPH (5 knots; 2.6 m/s)
Visibility: 4 miles (7 km)
Ceiling: 900 feet AGL
Clouds: broken clouds at 900 feet AGL
few clouds at 2000 feet AGL
Weather: TSRA -RA  (rain associated with thunderstorm(s), light rain)
Text: TEMPO 2511/2515 23008KT 8000
Forecast period: 1100 to 1500 UTC 25 August 2019
Forecast type: TEMPORARY: The following changes expected for less than half the time period
Winds: from the SW (230 degrees) at 9 MPH (8 knots; 4.1 m/s)
Visibility: 5 miles (8 km)
Ceiling: unknown
Clouds: missing
Weather: no significant weather forecast for this period


 MAPA DO AEROPORTO


 INFORMAÇÕES DA PISTA

Pista 04 Tamanho da pista 11000 ft Largura da pista 150 ft
Elevação da pista 29 ft Ranhura da pista 0 ft Proa da pista 31
Pista 22 Tamanho da pista 11000 ft Largura da pista 150 ft
Elevação da pista 25 ft Ranhura da pista 1200 ft Proa da pista 211

 FREQUÊNCIAS DO AEROPORTO

Tipo A/G Nome A/G VOICE Frequência 345.2 MHZ
Tipo APP Nome ROBERTS AP Frequência 124.5 MHZ
Tipo GND Nome GND Frequência 121.9 MHZ
Tipo TWR Nome ROBERTS TW Frequência 118.3 MHZ

 AUXÍLIOS DE NAVEGAÇÃO PRÓXIMOS AO AEROPORTO

Tipo NDB Nome Monrovia Roberts Frequência 263 KHZ
Tipo NDB Nome Monrovia Roberts Frequência 372 KHZ
Tipo VOR-DME Nome Monrovia Roberts Frequência 113800 KHZ